createdAt,value
2022-12-23T00:00:16.413Z,95.60
2022-12-23T00:02:44.578Z,94.40
2022-12-23T00:05:14.249Z,93.10
2022-12-23T00:07:42.005Z,94.20
2022-12-23T00:10:10.877Z,94.30
2022-12-23T00:12:56.386Z,92.90
2022-12-23T00:15:24.188Z,92.40
2022-12-23T00:17:51.969Z,92.80
2022-12-23T00:20:21.349Z,93.00
2022-12-23T00:23:07.456Z,92.50
2022-12-23T00:25:42.269Z,91.80
2022-12-23T00:28:12.296Z,93.70
2022-12-23T00:30:46.622Z,93.90
2022-12-23T00:33:15.353Z,93.90
2022-12-23T00:35:44.605Z,95.00
2022-12-23T00:38:12.960Z,95.30
2022-12-23T00:40:58.437Z,95.40
2022-12-23T00:43:26.394Z,92.80
2022-12-23T00:45:54.561Z,92.00
2022-12-23T00:48:39.888Z,92.60
2022-12-23T00:51:09.017Z,93.00
2022-12-23T00:53:36.756Z,92.90
2022-12-23T00:56:04.635Z,92.20
2022-12-23T00:58:32.844Z,92.10
2022-12-23T01:01:18.013Z,92.20
2022-12-23T01:04:03.246Z,91.60
2022-12-23T01:06:32.364Z,92.00
2022-12-23T01:09:00.157Z,92.30
2022-12-23T01:11:27.973Z,91.60
2022-12-23T01:13:55.771Z,91.30
2022-12-23T01:16:23.615Z,91.10
2022-12-23T01:18:51.469Z,90.90
2022-12-23T01:21:19.323Z,91.80
2022-12-23T01:23:48.451Z,92.00
2022-12-23T01:26:16.267Z,91.90
2022-12-23T01:28:44.027Z,91.70
2022-12-23T01:31:11.896Z,91.50
2022-12-23T01:33:39.936Z,91.50
2022-12-23T01:36:09.242Z,91.70
2022-12-23T01:38:37.122Z,91.70
2022-12-23T01:41:06.700Z,91.70
2022-12-23T01:43:46.691Z,91.90
2022-12-23T01:46:15.378Z,91.90
2022-12-23T01:48:46.164Z,92.90
2022-12-23T01:51:20.578Z,93.10
2022-12-23T01:53:51.412Z,93.70
2022-12-23T01:56:24.533Z,94.20
2022-12-23T01:58:56.017Z,95.10
2022-12-23T02:01:41.537Z,95.20
2022-12-23T02:04:12.878Z,95.50
2022-12-23T02:07:12.038Z,95.40
2022-12-23T02:09:41.550Z,95.20
2022-12-23T02:12:44.871Z,95.10
2022-12-23T02:15:43.003Z,95.30
2022-12-23T02:18:25.209Z,94.90
2022-12-23T02:21:21.429Z,95.50
2022-12-23T02:24:27.767Z,94.60
2022-12-23T02:27:06.152Z,95.40
2022-12-23T02:30:02.715Z,95.10
2022-12-23T02:32:43.335Z,95.30
2022-12-23T02:35:15.370Z,95.10
2022-12-23T02:37:51.520Z,95.00
2022-12-23T02:40:27.127Z,94.80
2022-12-23T02:43:04.536Z,94.30
2022-12-23T02:45:37.665Z,93.30
2022-12-23T02:48:11.480Z,93.00
2022-12-23T02:50:42.803Z,92.70
2022-12-23T02:53:16.850Z,92.90
2022-12-23T02:55:47.917Z,93.50
2022-12-23T02:58:18.972Z,93.80
2022-12-23T03:00:47.535Z,93.60
2022-12-23T03:03:17.215Z,94.00
2022-12-23T03:05:47.711Z,93.60
2022-12-23T03:08:23.527Z,94.00
2022-12-23T03:11:03.638Z,93.10
2022-12-23T03:13:59.603Z,93.30
2022-12-23T03:16:34.556Z,93.40
2022-12-23T03:19:14.980Z,92.90
2022-12-23T03:21:47.460Z,93.10
2022-12-23T03:24:23.257Z,93.30
2022-12-23T03:26:56.681Z,93.90
2022-12-23T03:29:31.365Z,93.90
2022-12-23T03:32:01.119Z,92.50
2022-12-23T03:34:35.023Z,91.80
2022-12-23T03:37:06.389Z,92.10
2022-12-23T03:39:39.665Z,92.60
2022-12-23T03:42:15.848Z,92.40
2022-12-23T03:45:10.656Z,93.00
2022-12-23T03:47:39.665Z,93.00
2022-12-23T03:50:12.496Z,93.40
2022-12-23T03:52:42.470Z,93.00
2022-12-23T03:55:16.146Z,92.70
2022-12-23T03:57:49.911Z,92.30
2022-12-23T04:00:18.104Z,91.40
2022-12-23T04:02:56.207Z,90.30
2022-12-23T04:05:28.775Z,89.90
2022-12-23T04:08:00.950Z,89.40
2022-12-23T04:10:29.708Z,89.50
2022-12-23T04:12:57.904Z,89.50
2022-12-23T04:15:28.052Z,88.90
2022-12-23T04:17:57.748Z,89.00
2022-12-23T04:20:27.083Z,88.80
2022-12-23T04:22:54.839Z,89.00
2022-12-23T04:25:22.740Z,89.00
2022-12-23T04:27:50.576Z,88.90
2022-12-23T04:30:18.543Z,89.20
2022-12-23T04:32:46.459Z,89.40
2022-12-23T04:35:14.556Z,90.20
2022-12-23T04:37:43.768Z,90.70
2022-12-23T04:40:11.883Z,90.80
2022-12-23T04:42:39.668Z,91.10
2022-12-23T04:45:08.451Z,91.10
2022-12-23T04:47:36.381Z,91.40
2022-12-23T04:50:04.682Z,91.20
2022-12-23T04:52:32.457Z,91.90
2022-12-23T04:55:01.598Z,92.30
2022-12-23T04:57:29.414Z,92.60
2022-12-23T04:59:57.212Z,92.60
2022-12-23T05:02:25.135Z,92.80
2022-12-23T05:04:52.997Z,92.90
2022-12-23T05:07:20.771Z,93.50
2022-12-23T05:09:48.551Z,94.20
2022-12-23T05:12:18.185Z,94.60
2022-12-23T05:14:45.974Z,95.10
2022-12-23T05:17:13.849Z,95.50
2022-12-23T05:19:41.659Z,96.30
2022-12-23T05:22:09.414Z,97.10
2022-12-23T05:24:37.224Z,97.70
2022-12-23T05:27:05.149Z,99.10
2022-12-23T05:29:34.285Z,99.90
2022-12-23T05:32:02.168Z,99.90
2022-12-23T05:34:30.146Z,99.90
2022-12-23T05:36:58.041Z,99.90
2022-12-23T05:39:26.040Z,99.90
2022-12-23T05:41:53.805Z,99.90
2022-12-23T05:44:21.575Z,99.90
2022-12-23T05:46:50.770Z,99.90
2022-12-23T05:49:18.743Z,99.90
2022-12-23T05:51:46.543Z,99.90
2022-12-23T05:54:14.424Z,99.90
2022-12-23T05:56:42.281Z,99.90
2022-12-23T05:59:10.190Z,99.90
2022-12-23T06:01:38.104Z,99.90
2022-12-23T06:04:07.495Z,99.90
2022-12-23T06:06:35.432Z,99.90
2022-12-23T06:09:03.228Z,99.90
2022-12-23T06:11:31.067Z,99.90
2022-12-23T06:13:58.822Z,99.90
2022-12-23T06:16:26.676Z,99.90
2022-12-23T06:18:56.137Z,99.90
2022-12-23T06:21:26.619Z,99.90
2022-12-23T06:23:54.446Z,99.90
2022-12-23T06:26:22.658Z,99.90
2022-12-23T06:28:50.565Z,99.90
2022-12-23T06:31:18.629Z,99.90
2022-12-23T06:33:46.618Z,99.90
2022-12-23T06:36:14.388Z,99.90
2022-12-23T06:38:43.533Z,99.90
2022-12-23T06:41:11.334Z,99.90
2022-12-23T06:43:39.172Z,99.90
2022-12-23T06:46:07.032Z,99.90
2022-12-23T06:48:34.895Z,99.90
2022-12-23T06:51:02.673Z,99.90
2022-12-23T06:53:30.465Z,99.90
2022-12-23T06:56:03.094Z,99.90
2022-12-23T06:58:31.332Z,99.90
2022-12-23T07:00:59.278Z,99.90
2022-12-23T07:03:27.137Z,99.90
2022-12-23T07:05:55.104Z,99.90
2022-12-23T07:08:22.988Z,99.90
2022-12-23T07:10:50.860Z,99.90
2022-12-23T07:13:19.966Z,99.90
2022-12-23T07:15:47.784Z,99.90
2022-12-23T07:18:15.600Z,99.90
2022-12-23T07:20:43.427Z,99.90
2022-12-23T07:23:11.231Z,99.90
2022-12-23T07:25:39.040Z,99.90
2022-12-23T07:28:06.828Z,99.90
2022-12-23T07:30:36.809Z,99.90
2022-12-23T07:33:04.718Z,99.90
2022-12-23T07:35:32.547Z,99.90
2022-12-23T07:38:00.341Z,99.90
2022-12-23T07:40:28.235Z,99.90
2022-12-23T07:42:58.024Z,99.90
2022-12-23T07:45:26.189Z,99.90
2022-12-23T07:47:55.887Z,99.90
2022-12-23T07:50:24.295Z,99.90
2022-12-23T07:52:52.523Z,99.90
2022-12-23T07:55:20.741Z,99.90
2022-12-23T07:57:49.705Z,99.90
2022-12-23T08:00:18.532Z,99.90
2022-12-23T08:02:46.727Z,99.90
2022-12-23T08:05:16.653Z,99.90
2022-12-23T08:07:45.508Z,99.90
2022-12-23T08:10:13.787Z,99.90
2022-12-23T08:12:41.751Z,99.90
2022-12-23T08:15:10.256Z,99.90
2022-12-23T08:17:38.083Z,99.90
2022-12-23T08:20:06.961Z,99.90
2022-12-23T08:22:36.094Z,99.90
2022-12-23T08:25:04.117Z,99.90
2022-12-23T08:27:31.914Z,99.90
2022-12-23T08:29:59.717Z,99.90
2022-12-23T08:32:28.261Z,99.90
2022-12-23T08:34:57.899Z,99.90
2022-12-23T08:37:26.348Z,99.90
2022-12-23T08:39:55.794Z,99.90
2022-12-23T08:42:23.592Z,99.90
2022-12-23T08:44:51.359Z,99.90
2022-12-23T08:47:19.192Z,99.30
2022-12-23T08:49:46.972Z,99.30
2022-12-23T08:52:15.808Z,98.80
2022-12-23T08:54:43.787Z,98.40
2022-12-23T08:57:12.960Z,97.40
2022-12-23T08:59:40.724Z,97.40
2022-12-23T09:02:10.751Z,97.80
2022-12-23T09:04:41.814Z,98.10
2022-12-23T09:07:09.619Z,98.80
2022-12-23T09:09:38.466Z,99.10
2022-12-23T09:12:06.421Z,99.20
2022-12-23T09:14:35.563Z,98.20
2022-12-23T09:17:03.447Z,97.80
2022-12-23T09:19:31.303Z,97.60
2022-12-23T09:21:59.101Z,96.10
2022-12-23T09:24:26.885Z,96.10
2022-12-23T09:26:54.726Z,96.20
2022-12-23T09:29:22.718Z,95.40
2022-12-23T09:31:51.897Z,95.40
2022-12-23T09:34:19.670Z,95.10
2022-12-23T09:36:53.395Z,95.80
2022-12-23T09:39:23.111Z,95.80
2022-12-23T09:42:02.948Z,96.30
2022-12-23T09:44:46.483Z,96.40
2022-12-23T09:47:19.150Z,95.20
2022-12-23T09:49:50.317Z,94.20
2022-12-23T09:52:26.560Z,92.60
2022-12-23T09:54:55.992Z,92.90
2022-12-23T09:57:27.407Z,93.00
2022-12-23T10:00:07.459Z,92.70
2022-12-23T10:02:51.211Z,91.10
2022-12-23T10:05:31.298Z,90.50
2022-12-23T10:08:03.511Z,89.90
2022-12-23T10:10:36.657Z,90.50
2022-12-23T10:13:07.288Z,91.20
2022-12-23T10:15:39.083Z,90.70
2022-12-23T10:18:18.951Z,90.70
2022-12-23T10:20:52.108Z,90.90
2022-12-23T10:23:29.358Z,90.40
2022-12-23T10:25:57.240Z,90.40
2022-12-23T10:28:29.744Z,90.80
2022-12-23T10:31:38.452Z,90.30
2022-12-23T10:34:01.997Z,90.50
2022-12-23T10:36:38.670Z,91.10
2022-12-23T10:39:15.173Z,91.50
2022-12-23T10:41:51.696Z,90.10
2022-12-23T10:44:42.812Z,89.90
2022-12-23T10:47:18.748Z,89.30
2022-12-23T10:50:00.560Z,88.90
2022-12-23T10:52:31.317Z,88.70
2022-12-23T10:54:59.182Z,87.80
2022-12-23T10:57:27.109Z,88.10
2022-12-23T10:59:54.924Z,88.10
2022-12-23T11:02:48.354Z,88.10
2022-12-23T11:05:26.871Z,87.50
2022-12-23T11:07:56.455Z,87.50
2022-12-23T11:10:29.110Z,87.00
2022-12-23T11:12:56.917Z,87.20
2022-12-23T11:15:32.093Z,86.70
2022-12-23T11:18:02.079Z,86.80
2022-12-23T11:20:31.390Z,86.80
2022-12-23T11:23:02.188Z,86.90
2022-12-23T11:25:36.678Z,87.10
2022-12-23T11:28:08.573Z,86.90
2022-12-23T11:30:39.291Z,87.30
2022-12-23T11:33:07.190Z,87.80
2022-12-23T11:35:38.012Z,88.50
2022-12-23T11:38:11.747Z,87.70
2022-12-23T11:40:40.386Z,88.00
2022-12-23T11:43:16.732Z,87.40
2022-12-23T11:45:45.136Z,88.10
2022-12-23T11:48:29.920Z,87.80
2022-12-23T11:51:03.463Z,88.40
2022-12-23T11:53:32.267Z,88.70
2022-12-23T11:56:02.158Z,87.90
2022-12-23T11:58:32.223Z,87.30
2022-12-23T12:01:01.561Z,87.80
2022-12-23T12:03:33.525Z,88.20
2022-12-23T12:06:06.269Z,88.20
2022-12-23T12:08:36.908Z,88.20
2022-12-23T12:11:12.689Z,88.50
2022-12-23T12:13:43.007Z,89.10
2022-12-23T12:16:25.586Z,89.20
2022-12-23T12:18:56.965Z,89.70
2022-12-23T12:21:30.151Z,89.70
2022-12-23T12:24:20.238Z,88.90
2022-12-23T12:26:52.509Z,88.80
2022-12-23T12:29:25.382Z,89.70
2022-12-23T12:31:56.060Z,89.60
2022-12-23T12:34:37.301Z,89.40
2022-12-23T12:37:16.746Z,90.60
2022-12-23T12:39:50.668Z,91.00
2022-12-23T12:42:25.859Z,91.40
2022-12-23T12:45:00.006Z,92.80
2022-12-23T12:47:53.430Z,92.20
2022-12-23T12:50:27.791Z,92.30
2022-12-23T12:53:03.027Z,93.60
2022-12-23T12:55:34.325Z,93.20
2022-12-23T12:58:03.415Z,93.90
2022-12-23T13:00:43.849Z,94.00
2022-12-23T13:03:28.834Z,93.30
2022-12-23T13:06:06.088Z,93.60
2022-12-23T13:08:51.306Z,93.80
2022-12-23T13:11:28.351Z,92.40
2022-12-23T13:14:02.894Z,92.80
2022-12-23T13:16:41.469Z,91.80
2022-12-23T13:19:22.173Z,91.50
2022-12-23T13:21:55.781Z,92.40
2022-12-23T13:24:30.521Z,93.30
2022-12-23T13:27:06.687Z,93.10
2022-12-23T13:29:49.430Z,92.40
2022-12-23T13:32:26.709Z,91.20
2022-12-23T13:35:04.355Z,91.50
2022-12-23T13:37:38.468Z,91.70
2022-12-23T13:40:22.465Z,91.60
2022-12-23T13:42:54.851Z,91.10
2022-12-23T13:45:24.057Z,90.10
2022-12-23T13:48:05.412Z,89.60
2022-12-23T13:50:37.506Z,89.30
2022-12-23T13:53:14.689Z,88.60
2022-12-23T13:56:02.202Z,88.40
2022-12-23T13:58:32.012Z,87.70
2022-12-23T14:01:19.514Z,87.30
2022-12-23T14:03:49.504Z,88.20
2022-12-23T14:06:22.933Z,88.80
2022-12-23T14:08:54.824Z,88.00
2022-12-23T14:11:27.331Z,88.70
2022-12-23T14:13:59.191Z,89.30
2022-12-23T14:16:50.356Z,89.20
2022-12-23T14:19:47.813Z,89.00
2022-12-23T14:22:36.231Z,90.30
2022-12-23T14:25:38.020Z,89.30
2022-12-23T14:28:19.896Z,89.50
2022-12-23T14:30:48.559Z,90.00
2022-12-23T14:33:24.183Z,89.20
2022-12-23T14:35:56.443Z,88.70
2022-12-23T14:38:29.823Z,87.70
2022-12-23T14:41:23.911Z,87.40
2022-12-23T14:43:59.261Z,88.20
2022-12-23T14:46:58.179Z,87.80
2022-12-23T14:49:42.845Z,88.20
2022-12-23T14:52:46.460Z,88.30
2022-12-23T14:55:48.116Z,88.20
2022-12-23T14:58:40.127Z,89.00
2022-12-23T15:01:13.972Z,89.20
2022-12-23T15:03:46.375Z,90.30
2022-12-23T15:06:19.211Z,90.80
2022-12-23T15:08:49.245Z,90.80
2022-12-23T15:11:23.911Z,90.00
2022-12-23T15:13:54.030Z,90.40
2022-12-23T15:16:31.108Z,91.00
2022-12-23T15:19:02.866Z,90.90
2022-12-23T15:21:33.739Z,91.30
2022-12-23T15:24:01.697Z,92.20
2022-12-23T15:26:32.532Z,92.60
2022-12-23T15:29:01.611Z,92.70
2022-12-23T15:31:36.710Z,93.40
2022-12-23T15:34:16.533Z,93.20
2022-12-23T15:36:46.672Z,93.80
2022-12-23T15:39:20.890Z,96.20
2022-12-23T15:41:49.464Z,98.00
2022-12-23T15:44:23.710Z,98.70
2022-12-23T15:46:53.644Z,99.90
2022-12-23T15:49:22.470Z,99.90
2022-12-23T15:52:15.252Z,99.90
2022-12-23T15:54:53.299Z,99.90
2022-12-23T15:57:25.692Z,99.90
2022-12-23T15:59:53.658Z,99.30
2022-12-23T16:02:59.810Z,99.00
2022-12-23T16:05:27.363Z,98.10
2022-12-23T16:08:11.658Z,98.10
2022-12-23T16:10:39.627Z,96.50
2022-12-23T16:13:16.909Z,96.00
2022-12-23T16:15:45.256Z,95.50
2022-12-23T16:18:20.586Z,94.90
2022-12-23T16:20:50.749Z,94.10
2022-12-23T16:23:19.023Z,92.80
2022-12-23T16:25:50.496Z,92.50
2022-12-23T16:28:23.908Z,91.90
2022-12-23T16:30:54.955Z,90.70
2022-12-23T16:33:36.040Z,90.50
2022-12-23T16:36:21.787Z,90.20
2022-12-23T16:38:50.981Z,90.50
2022-12-23T16:41:20.749Z,90.50
2022-12-23T16:43:52.350Z,90.70
2022-12-23T16:46:23.474Z,90.60
2022-12-23T16:48:55.855Z,90.50
2022-12-23T16:51:24.526Z,90.20
2022-12-23T16:53:55.122Z,90.20
2022-12-23T16:56:25.296Z,89.70
2022-12-23T16:58:53.189Z,89.70
2022-12-23T17:01:24.457Z,89.90
2022-12-23T17:03:55.849Z,89.20
2022-12-23T17:06:24.772Z,88.60
2022-12-23T17:08:53.986Z,87.80
2022-12-23T17:11:26.187Z,87.70
2022-12-23T17:13:58.052Z,86.80
2022-12-23T17:16:31.573Z,86.60
2022-12-23T17:19:01.012Z,86.10
2022-12-23T17:21:33.120Z,85.60
2022-12-23T17:24:05.968Z,85.30
2022-12-23T17:26:33.806Z,85.40
2022-12-23T17:29:03.372Z,85.10
2022-12-23T17:31:31.446Z,85.00
2022-12-23T17:34:01.005Z,84.40
2022-12-23T17:36:28.955Z,84.20
2022-12-23T17:38:56.857Z,84.90
2022-12-23T17:41:28.720Z,84.60
2022-12-23T17:43:57.129Z,84.00
2022-12-23T17:46:25.340Z,83.30
2022-12-23T17:48:53.582Z,82.90
2022-12-23T17:51:24.180Z,82.10
2022-12-23T17:53:57.798Z,82.20
2022-12-23T17:56:27.872Z,82.80
2022-12-23T17:58:55.788Z,83.20
2022-12-23T18:01:26.119Z,83.00
2022-12-23T18:03:54.745Z,83.60
2022-12-23T18:06:25.334Z,83.40
2022-12-23T18:08:53.124Z,83.30
2022-12-23T18:11:24.391Z,83.50
2022-12-23T18:13:54.338Z,84.10
2022-12-23T18:16:22.426Z,84.00
2022-12-23T18:18:50.325Z,84.50
2022-12-23T18:21:24.196Z,84.80
2022-12-23T18:23:53.119Z,85.30
2022-12-23T18:26:21.028Z,85.30
2022-12-23T18:28:48.903Z,85.80
2022-12-23T18:31:19.337Z,87.00
2022-12-23T18:33:47.846Z,87.50
2022-12-23T18:36:24.258Z,88.50
2022-12-23T18:38:52.792Z,88.90
2022-12-23T18:41:21.635Z,88.70
2022-12-23T18:43:49.691Z,89.10
2022-12-23T18:46:17.673Z,89.00
2022-12-23T18:48:45.558Z,89.20
2022-12-23T18:51:15.495Z,89.30
2022-12-23T18:53:44.613Z,89.40
2022-12-23T18:56:14.851Z,89.40
2022-12-23T18:58:42.823Z,89.30
2022-12-23T19:01:13.003Z,88.50
2022-12-23T19:03:41.484Z,89.50
2022-12-23T19:06:10.516Z,91.00
2022-12-23T19:08:39.268Z,92.10
2022-12-23T19:11:12.456Z,92.50
2022-12-23T19:13:40.307Z,92.50
2022-12-23T19:16:08.340Z,93.70
2022-12-23T19:18:36.191Z,94.20
2022-12-23T19:21:05.257Z,93.90
2022-12-23T19:23:33.134Z,95.50
2022-12-23T19:26:00.944Z,94.90
2022-12-23T19:28:30.109Z,94.50
2022-12-23T19:30:57.944Z,93.70
2022-12-23T19:33:25.901Z,93.40
2022-12-23T19:35:53.708Z,92.20
2022-12-23T19:38:21.504Z,92.00
2022-12-23T19:40:57.484Z,91.90
2022-12-23T19:43:25.394Z,91.50
2022-12-23T19:45:59.409Z,91.40
2022-12-23T19:48:27.730Z,91.40
2022-12-23T19:50:59.443Z,90.70
2022-12-23T19:53:27.493Z,89.60
2022-12-23T19:55:59.476Z,89.60
2022-12-23T19:58:27.521Z,89.30
2022-12-23T20:01:07.878Z,90.00
2022-12-23T20:03:36.083Z,91.50
2022-12-23T20:06:05.352Z,93.40
2022-12-23T20:08:33.821Z,95.00
2022-12-23T20:11:07.009Z,89.60
2022-12-23T20:13:35.270Z,86.00
2022-12-23T20:16:03.765Z,87.30
2022-12-23T20:18:33.020Z,89.80
2022-12-23T20:21:01.466Z,89.60
2022-12-23T20:23:30.055Z,90.30
2022-12-23T20:25:57.893Z,90.30
2022-12-23T20:28:26.620Z,90.30
2022-12-23T20:31:01.177Z,90.60
2022-12-23T20:33:29.035Z,91.00
2022-12-23T20:35:58.357Z,90.50
2022-12-23T20:38:26.249Z,90.50
2022-12-23T20:40:54.032Z,90.60
2022-12-23T20:43:21.835Z,91.20
2022-12-23T20:45:51.592Z,91.60
2022-12-23T20:48:21.051Z,92.20
2022-12-23T20:50:49.466Z,92.90
2022-12-23T20:53:18.647Z,93.00
2022-12-23T20:55:46.451Z,93.10
2022-12-23T20:58:31.159Z,92.40
2022-12-23T21:01:08.701Z,90.80
2022-12-23T21:03:36.878Z,90.50
2022-12-23T21:06:05.019Z,89.90
2022-12-23T21:08:34.221Z,89.70
2022-12-23T21:11:02.204Z,89.20
2022-12-23T21:13:30.005Z,89.70
2022-12-23T21:16:01.840Z,90.00
2022-12-23T21:18:29.970Z,90.00
2022-12-23T21:20:59.891Z,91.00
2022-12-23T21:23:28.286Z,91.70
2022-12-23T21:26:09.147Z,92.00
2022-12-23T21:28:37.573Z,90.80
2022-12-23T21:31:05.910Z,89.30
2022-12-23T21:33:36.446Z,89.70
2022-12-23T21:36:04.627Z,89.40
2022-12-23T21:38:33.705Z,88.50
2022-12-23T21:41:02.762Z,88.20
2022-12-23T21:43:32.561Z,88.70
2022-12-23T21:46:01.770Z,87.80
2022-12-23T21:48:32.694Z,87.70
2022-12-23T21:51:04.731Z,87.80
2022-12-23T21:53:33.766Z,87.30
2022-12-23T21:56:03.766Z,86.80
2022-12-23T21:58:33.420Z,85.90
2022-12-23T22:01:01.868Z,86.20
2022-12-23T22:03:29.754Z,86.80
2022-12-23T22:06:09.936Z,86.40
2022-12-23T22:08:38.693Z,87.10
2022-12-23T22:11:08.249Z,87.10
2022-12-23T22:13:38.073Z,87.20
2022-12-23T22:16:09.656Z,87.40
2022-12-23T22:18:38.042Z,87.10
2022-12-23T22:21:06.398Z,87.10
2022-12-23T22:23:34.325Z,86.80
2022-12-23T22:26:02.381Z,86.80
2022-12-23T22:28:32.286Z,86.40
2022-12-23T22:31:04.698Z,86.20
2022-12-23T22:33:32.973Z,86.30
2022-12-23T22:36:01.138Z,86.20
2022-12-23T22:38:29.251Z,86.40
2022-12-23T22:40:57.006Z,86.90
2022-12-23T22:43:24.792Z,86.00
2022-12-23T22:45:57.134Z,86.00
2022-12-23T22:48:28.759Z,86.50
2022-12-23T22:51:03.004Z,87.30
2022-12-23T22:53:31.173Z,86.40
2022-12-23T22:55:59.942Z,85.30
2022-12-23T22:58:28.925Z,85.40
2022-12-23T23:00:57.139Z,83.90
2022-12-23T23:03:26.500Z,83.80
2022-12-23T23:05:59.220Z,84.40
2022-12-23T23:08:27.061Z,85.50
2022-12-23T23:10:56.982Z,81.20
2022-12-23T23:13:26.093Z,81.50
2022-12-23T23:15:54.512Z,82.70
2022-12-23T23:18:22.311Z,82.40
2022-12-23T23:20:52.017Z,81.30
2022-12-23T23:23:20.232Z,81.60
2022-12-23T23:25:48.349Z,76.90
2022-12-23T23:28:16.306Z,77.80
2022-12-23T23:30:44.205Z,78.30
2022-12-23T23:33:12.407Z,79.40
2022-12-23T23:35:40.416Z,80.50
2022-12-23T23:38:10.119Z,80.30
2022-12-23T23:40:38.082Z,77.90
2022-12-23T23:43:06.005Z,78.00
2022-12-23T23:45:33.861Z,78.50
2022-12-23T23:48:01.715Z,79.10
2022-12-23T23:50:29.531Z,79.10
2022-12-23T23:52:57.339Z,80.00
2022-12-23T23:55:26.473Z,80.10
2022-12-23T23:57:54.274Z,80.40
